sensor_id;sensor_type;location;lat;lon;timestamp;temperature;humidity
7666;DHT22;3875;46.562;4.898;2023-10-13T00:01:18;19.20;82.70
7666;DHT22;3875;46.562;4.898;2023-10-13T00:03:44;19.20;82.60
7666;DHT22;3875;46.562;4.898;2023-10-13T00:06:09;19.20;83.00
7666;DHT22;3875;46.562;4.898;2023-10-13T00:08:36;19.10;83.60
7666;DHT22;3875;46.562;4.898;2023-10-13T00:11:05;19.10;83.50
7666;DHT22;3875;46.562;4.898;2023-10-13T00:13:31;19.10;83.50
7666;DHT22;3875;46.562;4.898;2023-10-13T00:16:07;19.10;83.60
7666;DHT22;3875;46.562;4.898;2023-10-13T00:18:35;19.10;83.40
7666;DHT22;3875;46.562;4.898;2023-10-13T00:21:07;19.10;83.50
7666;DHT22;3875;46.562;4.898;2023-10-13T00:23:39;19.10;83.40
7666;DHT22;3875;46.562;4.898;2023-10-13T00:26:14;19.10;83.70
7666;DHT22;3875;46.562;4.898;2023-10-13T00:28:43;19.00;83.80
7666;DHT22;3875;46.562;4.898;2023-10-13T00:31:11;19.00;83.80
7666;DHT22;3875;46.562;4.898;2023-10-13T00:33:38;19.00;83.80
7666;DHT22;3875;46.562;4.898;2023-10-13T00:36:04;19.00;84.10
7666;DHT22;3875;46.562;4.898;2023-10-13T00:38:30;19.00;83.90
7666;DHT22;3875;46.562;4.898;2023-10-13T00:40:56;19.00;83.80
7666;DHT22;3875;46.562;4.898;2023-10-13T00:43:28;19.00;83.90
7666;DHT22;3875;46.562;4.898;2023-10-13T00:45:58;19.00;83.60
7666;DHT22;3875;46.562;4.898;2023-10-13T00:48:37;19.00;83.70
7666;DHT22;3875;46.562;4.898;2023-10-13T00:51:29;19.00;83.90
7666;DHT22;3875;46.562;4.898;2023-10-13T00:54:02;19.00;84.20
7666;DHT22;3875;46.562;4.898;2023-10-13T00:56:33;18.90;84.30
7666;DHT22;3875;46.562;4.898;2023-10-13T00:58:59;18.90;84.50
7666;DHT22;3875;46.562;4.898;2023-10-13T01:01:30;18.90;84.50
7666;DHT22;3875;46.562;4.898;2023-10-13T01:03:58;18.90;84.90
7666;DHT22;3875;46.562;4.898;2023-10-13T01:06:28;18.90;84.90
7666;DHT22;3875;46.562;4.898;2023-10-13T01:11:22;18.80;85.50
7666;DHT22;3875;46.562;4.898;2023-10-13T01:13:49;18.80;85.20
7666;DHT22;3875;46.562;4.898;2023-10-13T01:16:17;18.80;85.30
7666;DHT22;3875;46.562;4.898;2023-10-13T01:18:43;18.80;85.70
7666;DHT22;3875;46.562;4.898;2023-10-13T01:21:15;18.70;85.80
7666;DHT22;3875;46.562;4.898;2023-10-13T01:23:44;18.80;85.80
7666;DHT22;3875;46.562;4.898;2023-10-13T01:26:12;18.70;85.80
7666;DHT22;3875;46.562;4.898;2023-10-13T01:28:41;18.70;86.00
7666;DHT22;3875;46.562;4.898;2023-10-13T01:31:11;18.70;85.90
7666;DHT22;3875;46.562;4.898;2023-10-13T01:33:50;18.70;85.80
7666;DHT22;3875;46.562;4.898;2023-10-13T01:36:19;18.70;85.80
7666;DHT22;3875;46.562;4.898;2023-10-13T01:38:45;18.60;85.90
7666;DHT22;3875;46.562;4.898;2023-10-13T01:41:12;18.70;85.90
7666;DHT22;3875;46.562;4.898;2023-10-13T01:43:39;18.60;86.00
7666;DHT22;3875;46.562;4.898;2023-10-13T01:46:04;18.60;86.10
7666;DHT22;3875;46.562;4.898;2023-10-13T01:48:30;18.60;86.30
7666;DHT22;3875;46.562;4.898;2023-10-13T01:50:58;18.60;86.50
7666;DHT22;3875;46.562;4.898;2023-10-13T01:53:25;18.60;86.60
7666;DHT22;3875;46.562;4.898;2023-10-13T01:55:54;18.60;86.40
7666;DHT22;3875;46.562;4.898;2023-10-13T01:58:22;18.50;86.50
7666;DHT22;3875;46.562;4.898;2023-10-13T02:00:48;18.50;86.50
7666;DHT22;3875;46.562;4.898;2023-10-13T02:03:13;18.50;86.30
7666;DHT22;3875;46.562;4.898;2023-10-13T02:05:42;18.50;86.30
7666;DHT22;3875;46.562;4.898;2023-10-13T02:08:23;18.50;86.30
7666;DHT22;3875;46.562;4.898;2023-10-13T02:10:54;18.40;86.40
7666;DHT22;3875;46.562;4.898;2023-10-13T02:13:21;18.40;86.50
7666;DHT22;3875;46.562;4.898;2023-10-13T02:15:47;18.30;86.80
7666;DHT22;3875;46.562;4.898;2023-10-13T02:18:14;18.30;87.10
7666;DHT22;3875;46.562;4.898;2023-10-13T02:20:48;18.20;87.50
7666;DHT22;3875;46.562;4.898;2023-10-13T02:23:20;18.20;87.70
7666;DHT22;3875;46.562;4.898;2023-10-13T02:25:46;18.20;87.60
7666;DHT22;3875;46.562;4.898;2023-10-13T02:28:11;18.20;87.60
7666;DHT22;3875;46.562;4.898;2023-10-13T02:30:41;18.20;87.60
7666;DHT22;3875;46.562;4.898;2023-10-13T02:33:11;18.20;87.60
7666;DHT22;3875;46.562;4.898;2023-10-13T02:35:37;18.20;87.90
7666;DHT22;3875;46.562;4.898;2023-10-13T02:38:09;18.20;88.10
7666;DHT22;3875;46.562;4.898;2023-10-13T02:40:39;18.20;88.20
7666;DHT22;3875;46.562;4.898;2023-10-13T02:43:04;18.20;88.20
7666;DHT22;3875;46.562;4.898;2023-10-13T02:45:33;18.20;88.40
7666;DHT22;3875;46.562;4.898;2023-10-13T02:48:03;18.20;88.50
7666;DHT22;3875;46.562;4.898;2023-10-13T02:50:58;18.20;88.70
7666;DHT22;3875;46.562;4.898;2023-10-13T02:53:27;18.10;88.90
7666;DHT22;3875;46.562;4.898;2023-10-13T02:55:54;18.10;89.10
7666;DHT22;3875;46.562;4.898;2023-10-13T02:58:40;18.10;89.10
7666;DHT22;3875;46.562;4.898;2023-10-13T03:01:11;18.10;89.20
7666;DHT22;3875;46.562;4.898;2023-10-13T03:03:49;18.10;89.40
7666;DHT22;3875;46.562;4.898;2023-10-13T03:06:17;18.00;89.50
7666;DHT22;3875;46.562;4.898;2023-10-13T03:08:44;18.00;89.70
7666;DHT22;3875;46.562;4.898;2023-10-13T03:11:10;18.00;89.70
7666;DHT22;3875;46.562;4.898;2023-10-13T03:13:36;18.00;89.70
7666;DHT22;3875;46.562;4.898;2023-10-13T03:16:10;17.90;90.00
7666;DHT22;3875;46.562;4.898;2023-10-13T03:18:36;17.90;89.90
7666;DHT22;3875;46.562;4.898;2023-10-13T03:21:03;17.90;90.10
7666;DHT22;3875;46.562;4.898;2023-10-13T03:23:29;17.90;90.00
7666;DHT22;3875;46.562;4.898;2023-10-13T03:26:08;17.90;90.20
7666;DHT22;3875;46.562;4.898;2023-10-13T03:28:34;17.90;90.30
7666;DHT22;3875;46.562;4.898;2023-10-13T03:30:59;17.90;90.40
7666;DHT22;3875;46.562;4.898;2023-10-13T03:33:26;17.80;90.40
7666;DHT22;3875;46.562;4.898;2023-10-13T03:35:52;17.80;90.70
7666;DHT22;3875;46.562;4.898;2023-10-13T03:38:24;17.80;90.90
7666;DHT22;3875;46.562;4.898;2023-10-13T03:40:52;17.80;90.90
7666;DHT22;3875;46.562;4.898;2023-10-13T03:43:21;17.80;91.20
7666;DHT22;3875;46.562;4.898;2023-10-13T03:45:48;17.80;91.60
7666;DHT22;3875;46.562;4.898;2023-10-13T03:50:54;17.80;92.00
7666;DHT22;3875;46.562;4.898;2023-10-13T03:53:43;17.80;91.80
7666;DHT22;3875;46.562;4.898;2023-10-13T03:56:21;17.70;92.00
7666;DHT22;3875;46.562;4.898;2023-10-13T03:58:54;17.70;91.70
7666;DHT22;3875;46.562;4.898;2023-10-13T04:01:20;17.70;91.70
7666;DHT22;3875;46.562;4.898;2023-10-13T04:03:54;17.80;91.60
7666;DHT22;3875;46.562;4.898;2023-10-13T04:06:27;17.70;92.40
7666;DHT22;3875;46.562;4.898;2023-10-13T04:09:15;17.70;92.30
7666;DHT22;3875;46.562;4.898;2023-10-13T04:14:30;17.60;92.60
7666;DHT22;3875;46.562;4.898;2023-10-13T04:17:14;17.60;92.90
7666;DHT22;3875;46.562;4.898;2023-10-13T04:19:40;17.60;93.00
7666;DHT22;3875;46.562;4.898;2023-10-13T04:22:44;17.60;93.20
7666;DHT22;3875;46.562;4.898;2023-10-13T04:25:13;17.60;93.40
7666;DHT22;3875;46.562;4.898;2023-10-13T04:27:58;17.60;93.20
7666;DHT22;3875;46.562;4.898;2023-10-13T04:30:38;17.60;93.70
7666;DHT22;3875;46.562;4.898;2023-10-13T04:33:26;17.60;93.90
7666;DHT22;3875;46.562;4.898;2023-10-13T04:36:12;17.60;94.10
7666;DHT22;3875;46.562;4.898;2023-10-13T04:38:54;17.60;93.90
7666;DHT22;3875;46.562;4.898;2023-10-13T04:41:38;17.60;94.40
7666;DHT22;3875;46.562;4.898;2023-10-13T04:44:07;17.60;94.20
7666;DHT22;3875;46.562;4.898;2023-10-13T04:46:51;17.60;94.20
7666;DHT22;3875;46.562;4.898;2023-10-13T04:49:18;17.60;94.60
7666;DHT22;3875;46.562;4.898;2023-10-13T04:51:57;17.60;94.70
7666;DHT22;3875;46.562;4.898;2023-10-13T04:54:36;17.60;94.70
7666;DHT22;3875;46.562;4.898;2023-10-13T04:57:18;17.60;95.00
7666;DHT22;3875;46.562;4.898;2023-10-13T05:00:03;17.60;95.20
7666;DHT22;3875;46.562;4.898;2023-10-13T05:02:29;17.60;95.10
7666;DHT22;3875;46.562;4.898;2023-10-13T05:05:04;17.50;95.30
7666;DHT22;3875;46.562;4.898;2023-10-13T05:07:48;17.60;95.30
7666;DHT22;3875;46.562;4.898;2023-10-13T05:10:33;17.50;95.80
7666;DHT22;3875;46.562;4.898;2023-10-13T05:13:18;17.50;95.80
7666;DHT22;3875;46.562;4.898;2023-10-13T05:16:02;17.50;95.80
7666;DHT22;3875;46.562;4.898;2023-10-13T05:18:46;17.50;95.80
7666;DHT22;3875;46.562;4.898;2023-10-13T05:21:30;17.50;95.90
7666;DHT22;3875;46.562;4.898;2023-10-13T05:24:14;17.50;95.80
7666;DHT22;3875;46.562;4.898;2023-10-13T05:26:59;17.60;96.00
7666;DHT22;3875;46.562;4.898;2023-10-13T05:29:44;17.50;95.90
7666;DHT22;3875;46.562;4.898;2023-10-13T05:32:28;17.50;96.00
7666;DHT22;3875;46.562;4.898;2023-10-13T05:35:13;17.50;95.90
7666;DHT22;3875;46.562;4.898;2023-10-13T05:38:17;17.50;95.70
7666;DHT22;3875;46.562;4.898;2023-10-13T05:41:04;17.50;95.70
7666;DHT22;3875;46.562;4.898;2023-10-13T05:43:48;17.50;95.80
7666;DHT22;3875;46.562;4.898;2023-10-13T05:46:33;17.50;96.00
7666;DHT22;3875;46.562;4.898;2023-10-13T05:49:02;17.50;96.00
7666;DHT22;3875;46.562;4.898;2023-10-13T05:51:47;17.50;95.90
7666;DHT22;3875;46.562;4.898;2023-10-13T05:54:23;17.40;96.10
7666;DHT22;3875;46.562;4.898;2023-10-13T05:57:07;17.40;96.30
7666;DHT22;3875;46.562;4.898;2023-10-13T05:59:51;17.40;96.10
7666;DHT22;3875;46.562;4.898;2023-10-13T06:02:36;17.50;96.20
7666;DHT22;3875;46.562;4.898;2023-10-13T06:05:20;17.40;96.20
7666;DHT22;3875;46.562;4.898;2023-10-13T06:08:05;17.50;96.30
7666;DHT22;3875;46.562;4.898;2023-10-13T06:10:49;17.50;96.30
7666;DHT22;3875;46.562;4.898;2023-10-13T06:13:33;17.50;96.30
7666;DHT22;3875;46.562;4.898;2023-10-13T06:16:17;17.50;96.50
7666;DHT22;3875;46.562;4.898;2023-10-13T06:19:02;17.50;96.40
7666;DHT22;3875;46.562;4.898;2023-10-13T06:21:46;17.50;96.40
7666;DHT22;3875;46.562;4.898;2023-10-13T06:24:30;17.50;96.40
7666;DHT22;3875;46.562;4.898;2023-10-13T06:27:15;17.60;96.30
7666;DHT22;3875;46.562;4.898;2023-10-13T06:29:59;17.60;96.20
7666;DHT22;3875;46.562;4.898;2023-10-13T06:32:26;17.60;96.50
7666;DHT22;3875;46.562;4.898;2023-10-13T06:34:54;17.60;96.50
7666;DHT22;3875;46.562;4.898;2023-10-13T06:37:23;17.70;96.40
7666;DHT22;3875;46.562;4.898;2023-10-13T06:39:57;17.70;96.30
7666;DHT22;3875;46.562;4.898;2023-10-13T06:42:23;17.70;96.40
7666;DHT22;3875;46.562;4.898;2023-10-13T06:44:55;17.80;96.40
7666;DHT22;3875;46.562;4.898;2023-10-13T06:47:21;17.80;96.30
7666;DHT22;3875;46.562;4.898;2023-10-13T06:49:47;17.80;96.30
7666;DHT22;3875;46.562;4.898;2023-10-13T06:52:19;17.80;96.30
7666;DHT22;3875;46.562;4.898;2023-10-13T06:54:44;17.90;96.30
7666;DHT22;3875;46.562;4.898;2023-10-13T06:57:10;18.00;96.40
7666;DHT22;3875;46.562;4.898;2023-10-13T06:59:46;18.10;96.00
7666;DHT22;3875;46.562;4.898;2023-10-13T07:02:12;18.30;95.60
7666;DHT22;3875;46.562;4.898;2023-10-13T07:04:46;18.40;95.30
7666;DHT22;3875;46.562;4.898;2023-10-13T07:07:12;18.50;94.90
7666;DHT22;3875;46.562;4.898;2023-10-13T07:09:41;18.60;94.70
7666;DHT22;3875;46.562;4.898;2023-10-13T07:12:14;18.70;94.30
7666;DHT22;3875;46.562;4.898;2023-10-13T07:14:48;18.80;94.10
7666;DHT22;3875;46.562;4.898;2023-10-13T07:17:30;18.80;93.90
7666;DHT22;3875;46.562;4.898;2023-10-13T07:20:03;18.90;93.60
7666;DHT22;3875;46.562;4.898;2023-10-13T07:22:52;19.00;93.40
7666;DHT22;3875;46.562;4.898;2023-10-13T07:25:23;19.00;93.20
7666;DHT22;3875;46.562;4.898;2023-10-13T07:27:52;19.10;93.10
7666;DHT22;3875;46.562;4.898;2023-10-13T07:30:19;19.20;92.90
7666;DHT22;3875;46.562;4.898;2023-10-13T07:32:45;19.20;92.60
7666;DHT22;3875;46.562;4.898;2023-10-13T07:35:14;19.20;92.50
7666;DHT22;3875;46.562;4.898;2023-10-13T07:37:43;19.30;92.40
7666;DHT22;3875;46.562;4.898;2023-10-13T07:40:08;19.30;91.90
7666;DHT22;3875;46.562;4.898;2023-10-13T07:42:55;19.40;91.90
7666;DHT22;3875;46.562;4.898;2023-10-13T07:45:29;19.40;91.70
7666;DHT22;3875;46.562;4.898;2023-10-13T07:48:05;19.50;91.60
7666;DHT22;3875;46.562;4.898;2023-10-13T07:51:01;19.60;91.20
7666;DHT22;3875;46.562;4.898;2023-10-13T07:53:27;19.70;91.00
7666;DHT22;3875;46.562;4.898;2023-10-13T07:55:54;19.80;90.60
7666;DHT22;3875;46.562;4.898;2023-10-13T07:58:21;19.80;90.50
7666;DHT22;3875;46.562;4.898;2023-10-13T08:00:50;19.90;90.30
7666;DHT22;3875;46.562;4.898;2023-10-13T08:03:24;19.90;89.90
7666;DHT22;3875;46.562;4.898;2023-10-13T08:06:08;20.00;89.80
7666;DHT22;3875;46.562;4.898;2023-10-13T08:08:37;20.00;89.60
7666;DHT22;3875;46.562;4.898;2023-10-13T08:11:09;20.00;89.80
7666;DHT22;3875;46.562;4.898;2023-10-13T08:13:59;20.10;89.60
7666;DHT22;3875;46.562;4.898;2023-10-13T08:16:30;20.20;89.50
7666;DHT22;3875;46.562;4.898;2023-10-13T08:19:16;20.20;89.00
7666;DHT22;3875;46.562;4.898;2023-10-13T08:21:42;20.20;89.00
7666;DHT22;3875;46.562;4.898;2023-10-13T08:24:15;20.20;89.00
7666;DHT22;3875;46.562;4.898;2023-10-13T08:26:41;20.30;88.80
7666;DHT22;3875;46.562;4.898;2023-10-13T08:29:33;20.30;88.60
7666;DHT22;3875;46.562;4.898;2023-10-13T08:32:16;20.30;88.90
7666;DHT22;3875;46.562;4.898;2023-10-13T08:34:50;20.30;88.70
7666;DHT22;3875;46.562;4.898;2023-10-13T08:37:19;20.40;88.70
7666;DHT22;3875;46.562;4.898;2023-10-13T08:47:59;20.70;87.40
7666;DHT22;3875;46.562;4.898;2023-10-13T08:50:55;20.80;87.10
7666;DHT22;3875;46.562;4.898;2023-10-13T08:53:28;20.80;86.80
7666;DHT22;3875;46.562;4.898;2023-10-13T08:55:57;20.90;86.60
7666;DHT22;3875;46.562;4.898;2023-10-13T08:58:42;21.10;85.80
7666;DHT22;3875;46.562;4.898;2023-10-13T09:01:20;21.20;86.10
7666;DHT22;3875;46.562;4.898;2023-10-13T09:04:05;21.30;85.20
7666;DHT22;3875;46.562;4.898;2023-10-13T09:06:59;21.40;85.00
7666;DHT22;3875;46.562;4.898;2023-10-13T09:09:25;21.40;84.50
7666;DHT22;3875;46.562;4.898;2023-10-13T09:12:22;21.60;84.40
7666;DHT22;3875;46.562;4.898;2023-10-13T09:14:52;21.70;84.00
7666;DHT22;3875;46.562;4.898;2023-10-13T09:17:24;21.70;83.60
7666;DHT22;3875;46.562;4.898;2023-10-13T09:20:03;22.00;82.80
7666;DHT22;3875;46.562;4.898;2023-10-13T09:22:53;22.30;82.70
7666;DHT22;3875;46.562;4.898;2023-10-13T09:25:30;22.40;82.00
7666;DHT22;3875;46.562;4.898;2023-10-13T09:28:00;22.40;81.60
7666;DHT22;3875;46.562;4.898;2023-10-13T09:30:26;22.40;81.40
7666;DHT22;3875;46.562;4.898;2023-10-13T09:33:00;22.50;81.70
7666;DHT22;3875;46.562;4.898;2023-10-13T09:35:30;22.60;81.00
7666;DHT22;3875;46.562;4.898;2023-10-13T09:37:59;23.00;80.30
7666;DHT22;3875;46.562;4.898;2023-10-13T09:40:27;22.90;79.40
7666;DHT22;3875;46.562;4.898;2023-10-13T09:43:11;22.90;79.70
7666;DHT22;3875;46.562;4.898;2023-10-13T09:45:40;23.00;79.80
7666;DHT22;3875;46.562;4.898;2023-10-13T09:48:12;23.10;79.60
7666;DHT22;3875;46.562;4.898;2023-10-13T09:50:47;23.20;79.70
7666;DHT22;3875;46.562;4.898;2023-10-13T09:53:14;23.30;78.90
7666;DHT22;3875;46.562;4.898;2023-10-13T09:58:56;23.50;78.60
7666;DHT22;3875;46.562;4.898;2023-10-13T10:01:28;23.90;77.30
7666;DHT22;3875;46.562;4.898;2023-10-13T10:04:06;24.20;76.80
7666;DHT22;3875;46.562;4.898;2023-10-13T10:06:38;24.30;76.90
7666;DHT22;3875;46.562;4.898;2023-10-13T10:09:08;24.50;76.50
7666;DHT22;3875;46.562;4.898;2023-10-13T10:14:19;25.10;74.30
7666;DHT22;3875;46.562;4.898;2023-10-13T10:19:25;25.00;72.40
7666;DHT22;3875;46.562;4.898;2023-10-13T10:22:02;24.90;72.60
7666;DHT22;3875;46.562;4.898;2023-10-13T10:24:31;24.90;72.70
7666;DHT22;3875;46.562;4.898;2023-10-13T10:26:58;24.90;71.60
7666;DHT22;3875;46.562;4.898;2023-10-13T10:29:24;24.90;71.60
7666;DHT22;3875;46.562;4.898;2023-10-13T10:31:50;25.20;71.20
7666;DHT22;3875;46.562;4.898;2023-10-13T10:34:16;25.30;70.80
7666;DHT22;3875;46.562;4.898;2023-10-13T10:36:53;25.40;70.20
7666;DHT22;3875;46.562;4.898;2023-10-13T10:39:19;25.50;70.70
7666;DHT22;3875;46.562;4.898;2023-10-13T10:41:46;25.60;69.50
7666;DHT22;3875;46.562;4.898;2023-10-13T10:44:17;25.80;69.70
7666;DHT22;3875;46.562;4.898;2023-10-13T10:46:47;25.90;68.80
7666;DHT22;3875;46.562;4.898;2023-10-13T10:49:26;26.10;67.80
7666;DHT22;3875;46.562;4.898;2023-10-13T10:51:59;26.10;67.30
7666;DHT22;3875;46.562;4.898;2023-10-13T10:54:29;26.10;67.00
7666;DHT22;3875;46.562;4.898;2023-10-13T10:56:58;26.10;66.50
7666;DHT22;3875;46.562;4.898;2023-10-13T10:59:37;26.10;66.60
7666;DHT22;3875;46.562;4.898;2023-10-13T11:02:08;26.10;66.30
7666;DHT22;3875;46.562;4.898;2023-10-13T11:04:34;26.10;65.40
7666;DHT22;3875;46.562;4.898;2023-10-13T11:07:06;26.10;66.20
7666;DHT22;3875;46.562;4.898;2023-10-13T11:09:32;26.30;65.00
7666;DHT22;3875;46.562;4.898;2023-10-13T11:12:18;26.30;64.90
7666;DHT22;3875;46.562;4.898;2023-10-13T11:17:26;26.60;64.50
7666;DHT22;3875;46.562;4.898;2023-10-13T11:20:13;26.50;63.60
7666;DHT22;3875;46.562;4.898;2023-10-13T11:22:48;26.50;63.40
7666;DHT22;3875;46.562;4.898;2023-10-13T11:25:22;26.50;64.10
7666;DHT22;3875;46.562;4.898;2023-10-13T11:28:16;26.60;64.20
7666;DHT22;3875;46.562;4.898;2023-10-13T11:30:46;26.70;63.00
7666;DHT22;3875;46.562;4.898;2023-10-13T11:33:15;26.70;63.50
7666;DHT22;3875;46.562;4.898;2023-10-13T11:35:48;26.70;63.20
7666;DHT22;3875;46.562;4.898;2023-10-13T11:38:16;26.80;63.90
7666;DHT22;3875;46.562;4.898;2023-10-13T11:43:52;27.20;63.70
7666;DHT22;3875;46.562;4.898;2023-10-13T11:46:19;27.30;62.40
7666;DHT22;3875;46.562;4.898;2023-10-13T11:49:06;27.40;61.60
7666;DHT22;3875;46.562;4.898;2023-10-13T11:51:52;27.50;61.90
7666;DHT22;3875;46.562;4.898;2023-10-13T11:54:18;27.70;62.10
7666;DHT22;3875;46.562;4.898;2023-10-13T11:56:47;27.80;61.90
7666;DHT22;3875;46.562;4.898;2023-10-13T11:59:13;27.80;61.30
7666;DHT22;3875;46.562;4.898;2023-10-13T12:01:46;27.70;61.30
7666;DHT22;3875;46.562;4.898;2023-10-13T12:04:30;27.70;61.90
7666;DHT22;3875;46.562;4.898;2023-10-13T12:07:06;27.80;62.10
7666;DHT22;3875;46.562;4.898;2023-10-13T12:09:51;27.80;61.00
7666;DHT22;3875;46.562;4.898;2023-10-13T12:12:20;27.80;61.30
7666;DHT22;3875;46.562;4.898;2023-10-13T12:14:45;27.80;61.60
7666;DHT22;3875;46.562;4.898;2023-10-13T12:17:27;27.70;61.70
7666;DHT22;3875;46.562;4.898;2023-10-13T12:20:08;27.80;61.70
7666;DHT22;3875;46.562;4.898;2023-10-13T12:22:43;27.80;61.50
7666;DHT22;3875;46.562;4.898;2023-10-13T12:25:09;27.90;62.10
7666;DHT22;3875;46.562;4.898;2023-10-13T12:27:53;28.00;60.60
7666;DHT22;3875;46.562;4.898;2023-10-13T12:30:23;27.90;61.50
7666;DHT22;3875;46.562;4.898;2023-10-13T12:33:01;27.80;61.20
7666;DHT22;3875;46.562;4.898;2023-10-13T12:35:39;27.80;61.40
7666;DHT22;3875;46.562;4.898;2023-10-13T12:38:24;27.70;61.60
7666;DHT22;3875;46.562;4.898;2023-10-13T12:41:17;27.70;61.90
7666;DHT22;3875;46.562;4.898;2023-10-13T12:44:01;27.60;61.80
7666;DHT22;3875;46.562;4.898;2023-10-13T12:46:46;27.80;62.10
7666;DHT22;3875;46.562;4.898;2023-10-13T12:49:34;27.70;61.70
7666;DHT22;3875;46.562;4.898;2023-10-13T12:52:06;27.90;61.90
7666;DHT22;3875;46.562;4.898;2023-10-13T12:54:47;27.90;62.10
7666;DHT22;3875;46.562;4.898;2023-10-13T12:57:19;28.00;62.10
7666;DHT22;3875;46.562;4.898;2023-10-13T12:59:51;28.00;62.30
7666;DHT22;3875;46.562;4.898;2023-10-13T13:02:20;28.00;62.10
7666;DHT22;3875;46.562;4.898;2023-10-13T13:04:45;28.00;62.70
7666;DHT22;3875;46.562;4.898;2023-10-13T13:07:13;28.10;62.50
7666;DHT22;3875;46.562;4.898;2023-10-13T13:09:42;28.10;62.30
7666;DHT22;3875;46.562;4.898;2023-10-13T13:12:08;28.10;62.10
7666;DHT22;3875;46.562;4.898;2023-10-13T13:14:38;28.10;62.40
7666;DHT22;3875;46.562;4.898;2023-10-13T13:17:05;28.10;62.70
7666;DHT22;3875;46.562;4.898;2023-10-13T13:19:34;28.20;62.30
7666;DHT22;3875;46.562;4.898;2023-10-13T13:22:08;28.30;62.50
7666;DHT22;3875;46.562;4.898;2023-10-13T13:24:43;28.50;61.70
7666;DHT22;3875;46.562;4.898;2023-10-13T13:27:10;28.30;61.80
7666;DHT22;3875;46.562;4.898;2023-10-13T13:29:41;28.20;62.20
7666;DHT22;3875;46.562;4.898;2023-10-13T13:32:07;28.10;62.50
7666;DHT22;3875;46.562;4.898;2023-10-13T13:34:43;27.90;63.00
7666;DHT22;3875;46.562;4.898;2023-10-13T13:37:09;28.00;63.40
7666;DHT22;3875;46.562;4.898;2023-10-13T13:39:38;28.00;63.10
7666;DHT22;3875;46.562;4.898;2023-10-13T13:42:09;27.90;62.70
7666;DHT22;3875;46.562;4.898;2023-10-13T13:44:35;27.90;62.50
7666;DHT22;3875;46.562;4.898;2023-10-13T13:47:03;27.90;62.80
7666;DHT22;3875;46.562;4.898;2023-10-13T13:49:37;27.70;62.80
7666;DHT22;3875;46.562;4.898;2023-10-13T13:52:21;27.70;63.30
7666;DHT22;3875;46.562;4.898;2023-10-13T13:54:58;27.80;63.40
7666;DHT22;3875;46.562;4.898;2023-10-13T13:57:28;27.80;63.30
7666;DHT22;3875;46.562;4.898;2023-10-13T13:59:53;27.80;63.30
7666;DHT22;3875;46.562;4.898;2023-10-13T14:02:19;27.80;63.20
7666;DHT22;3875;46.562;4.898;2023-10-13T14:04:46;27.80;63.90
7666;DHT22;3875;46.562;4.898;2023-10-13T14:07:12;27.90;63.60
7666;DHT22;3875;46.562;4.898;2023-10-13T14:09:40;27.80;63.00
7666;DHT22;3875;46.562;4.898;2023-10-13T14:12:08;27.90;62.70
7666;DHT22;3875;46.562;4.898;2023-10-13T14:14:52;27.80;63.00
7666;DHT22;3875;46.562;4.898;2023-10-13T14:17:21;27.80;63.30
7666;DHT22;3875;46.562;4.898;2023-10-13T14:19:55;27.80;63.00
7666;DHT22;3875;46.562;4.898;2023-10-13T14:22:20;27.70;63.30
7666;DHT22;3875;46.562;4.898;2023-10-13T14:24:50;27.80;63.60
7666;DHT22;3875;46.562;4.898;2023-10-13T14:27:20;27.80;63.10
7666;DHT22;3875;46.562;4.898;2023-10-13T14:29:48;27.80;63.30
7666;DHT22;3875;46.562;4.898;2023-10-13T14:32:18;27.80;63.40
7666;DHT22;3875;46.562;4.898;2023-10-13T14:34:47;27.80;62.90
7666;DHT22;3875;46.562;4.898;2023-10-13T14:37:20;27.90;63.60
7666;DHT22;3875;46.562;4.898;2023-10-13T14:39:57;27.90;62.80
7666;DHT22;3875;46.562;4.898;2023-10-13T14:42:26;27.80;62.50
7666;DHT22;3875;46.562;4.898;2023-10-13T14:44:52;27.70;63.00
7666;DHT22;3875;46.562;4.898;2023-10-13T14:47:24;27.70;63.10
7666;DHT22;3875;46.562;4.898;2023-10-13T14:49:52;27.60;63.10
7666;DHT22;3875;46.562;4.898;2023-10-13T14:52:20;27.50;63.20
7666;DHT22;3875;46.562;4.898;2023-10-13T14:54:46;27.50;63.30
7666;DHT22;3875;46.562;4.898;2023-10-13T14:57:13;27.40;63.70
7666;DHT22;3875;46.562;4.898;2023-10-13T14:59:39;27.40;63.70
7666;DHT22;3875;46.562;4.898;2023-10-13T15:02:04;27.40;64.00
7666;DHT22;3875;46.562;4.898;2023-10-13T15:04:30;27.40;64.20
7666;DHT22;3875;46.562;4.898;2023-10-13T15:06:59;27.20;64.50
7666;DHT22;3875;46.562;4.898;2023-10-13T15:09:27;27.00;65.10
7666;DHT22;3875;46.562;4.898;2023-10-13T15:11:53;26.90;65.10
7666;DHT22;3875;46.562;4.898;2023-10-13T15:14:19;26.80;65.20
7666;DHT22;3875;46.562;4.898;2023-10-13T15:16:45;26.70;65.60
7666;DHT22;3875;46.562;4.898;2023-10-13T15:19:11;26.60;65.80
7666;DHT22;3875;46.562;4.898;2023-10-13T15:21:37;26.50;66.20
7666;DHT22;3875;46.562;4.898;2023-10-13T15:24:08;26.40;65.80
7666;DHT22;3875;46.562;4.898;2023-10-13T15:26:40;26.40;65.90
7666;DHT22;3875;46.562;4.898;2023-10-13T15:29:07;26.30;66.10
7666;DHT22;3875;46.562;4.898;2023-10-13T15:31:34;26.30;66.10
7666;DHT22;3875;46.562;4.898;2023-10-13T15:34:00;26.30;66.20
7666;DHT22;3875;46.562;4.898;2023-10-13T15:36:35;26.30;66.30
7666;DHT22;3875;46.562;4.898;2023-10-13T15:39:00;26.20;66.20
7666;DHT22;3875;46.562;4.898;2023-10-13T15:41:27;26.30;66.60
7666;DHT22;3875;46.562;4.898;2023-10-13T15:43:53;26.20;66.70
7666;DHT22;3875;46.562;4.898;2023-10-13T15:46:20;26.10;67.30
7666;DHT22;3875;46.562;4.898;2023-10-13T15:48:49;26.00;66.80
7666;DHT22;3875;46.562;4.898;2023-10-13T15:51:15;25.90;67.70
7666;DHT22;3875;46.562;4.898;2023-10-13T15:53:44;25.90;67.60
7666;DHT22;3875;46.562;4.898;2023-10-13T15:56:10;25.80;67.50
7666;DHT22;3875;46.562;4.898;2023-10-13T15:58:46;25.80;67.90
7666;DHT22;3875;46.562;4.898;2023-10-13T16:01:12;25.70;67.70
7666;DHT22;3875;46.562;4.898;2023-10-13T16:03:41;25.60;68.10
7666;DHT22;3875;46.562;4.898;2023-10-13T16:06:12;25.60;68.00
7666;DHT22;3875;46.562;4.898;2023-10-13T16:08:41;26.30;66.70
7666;DHT22;3875;46.562;4.898;2023-10-13T16:11:14;26.50;65.90
7666;DHT22;3875;46.562;4.898;2023-10-13T16:13:43;26.40;66.10
7666;DHT22;3875;46.562;4.898;2023-10-13T16:16:20;26.30;66.30
7666;DHT22;3875;46.562;4.898;2023-10-13T16:18:50;26.10;66.40
7666;DHT22;3875;46.562;4.898;2023-10-13T16:21:17;25.90;66.60
7666;DHT22;3875;46.562;4.898;2023-10-13T16:23:47;25.70;67.10
7666;DHT22;3875;46.562;4.898;2023-10-13T16:26:17;25.60;67.50
7666;DHT22;3875;46.562;4.898;2023-10-13T16:28:50;25.40;67.90
7666;DHT22;3875;46.562;4.898;2023-10-13T16:31:23;25.30;68.30
7666;DHT22;3875;46.562;4.898;2023-10-13T16:33:49;25.20;68.40
7666;DHT22;3875;46.562;4.898;2023-10-13T16:36:15;25.10;68.70
7666;DHT22;3875;46.562;4.898;2023-10-13T16:38:41;25.00;68.70
7666;DHT22;3875;46.562;4.898;2023-10-13T16:41:11;24.90;69.10
7666;DHT22;3875;46.562;4.898;2023-10-13T16:43:38;24.90;69.50
7666;DHT22;3875;46.562;4.898;2023-10-13T16:48:33;24.60;69.30
7666;DHT22;3875;46.562;4.898;2023-10-13T16:53:25;24.40;69.90
7666;DHT22;3875;46.562;4.898;2023-10-13T16:55:51;24.20;70.20
7666;DHT22;3875;46.562;4.898;2023-10-13T16:58:17;24.10;70.40
7666;DHT22;3875;46.562;4.898;2023-10-13T17:00:43;24.10;70.60
7666;DHT22;3875;46.562;4.898;2023-10-13T17:03:10;24.00;70.80
7666;DHT22;3875;46.562;4.898;2023-10-13T17:05:41;24.00;70.90
7666;DHT22;3875;46.562;4.898;2023-10-13T17:08:07;23.90;71.00
7666;DHT22;3875;46.562;4.898;2023-10-13T17:10:34;23.90;71.20
7666;DHT22;3875;46.562;4.898;2023-10-13T17:13:00;23.80;71.30